createdAt,value
2023-12-30T00:01:05.746Z,52.27
2023-12-30T00:02:59.212Z,52.27
2023-12-30T00:04:50.906Z,52.48
2023-12-30T00:06:42.172Z,52.48
2023-12-30T00:08:33.978Z,52.51
2023-12-30T00:10:25.378Z,52.60
2023-12-30T00:12:16.756Z,52.59
2023-12-30T00:14:08.454Z,52.56
2023-12-30T00:16:00.531Z,52.58
2023-12-30T00:17:51.896Z,52.68
2023-12-30T00:19:46.309Z,52.66
2023-12-30T00:21:37.888Z,52.57
2023-12-30T00:23:34.693Z,52.50
2023-12-30T00:25:31.963Z,52.43
2023-12-30T00:27:23.372Z,52.46
2023-12-30T00:29:14.870Z,52.57
2023-12-30T00:31:06.578Z,52.74
2023-12-30T00:32:58.253Z,52.78
2023-12-30T00:34:50.869Z,52.78
2023-12-30T00:36:45.133Z,53.03
2023-12-30T00:38:36.373Z,53.09
2023-12-30T00:40:28.063Z,53.14
2023-12-30T00:42:19.706Z,53.15
2023-12-30T00:44:11.950Z,53.15
2023-12-30T00:46:03.709Z,53.04
2023-12-30T00:47:55.456Z,53.05
2023-12-30T00:49:47.307Z,53.11
2023-12-30T00:51:38.911Z,53.13
2023-12-30T00:53:30.519Z,53.13
2023-12-30T00:55:22.329Z,53.01
2023-12-30T00:57:13.941Z,52.94
2023-12-30T00:59:05.696Z,52.80
2023-12-30T01:00:57.629Z,52.76
2023-12-30T01:02:49.347Z,52.77
2023-12-30T01:04:40.911Z,52.66
2023-12-30T01:06:32.349Z,52.49
2023-12-30T01:08:24.186Z,52.60
2023-12-30T01:10:17.868Z,52.54
2023-12-30T01:12:09.520Z,52.54
2023-12-30T01:14:01.397Z,52.68
2023-12-30T01:15:53.158Z,52.69
2023-12-30T01:17:47.527Z,52.55
2023-12-30T01:19:39.238Z,52.28
2023-12-30T01:21:30.638Z,52.38
2023-12-30T01:23:22.494Z,52.27
2023-12-30T01:25:14.269Z,52.32
2023-12-30T01:27:05.867Z,52.28
2023-12-30T01:28:57.387Z,52.32
2023-12-30T01:30:49.201Z,52.25
2023-12-30T01:32:40.861Z,52.15
2023-12-30T01:34:32.328Z,52.20
2023-12-30T01:36:23.785Z,52.19
2023-12-30T01:38:15.539Z,52.17
2023-12-30T01:40:07.762Z,52.16
2023-12-30T01:41:59.737Z,52.17
2023-12-30T01:43:51.175Z,52.13
2023-12-30T01:45:43.725Z,52.20
2023-12-30T01:47:38.240Z,52.25
2023-12-30T01:49:29.738Z,52.30
2023-12-30T01:51:25.116Z,52.37
2023-12-30T01:53:19.568Z,52.43
2023-12-30T01:55:10.858Z,52.55
2023-12-30T01:57:03.949Z,52.58
2023-12-30T01:58:55.857Z,52.64
2023-12-30T02:00:53.237Z,52.70
2023-12-30T02:02:44.819Z,52.74
2023-12-30T02:04:36.620Z,52.92
2023-12-30T02:06:28.092Z,53.01
2023-12-30T02:08:21.043Z,52.98
2023-12-30T02:10:13.023Z,52.97
2023-12-30T02:12:05.452Z,53.04
2023-12-30T02:13:56.913Z,53.09
2023-12-30T02:15:48.513Z,52.99
2023-12-30T02:17:40.302Z,53.04
2023-12-30T02:19:34.172Z,53.20
2023-12-30T02:21:25.596Z,53.25
2023-12-30T02:23:17.413Z,53.32
2023-12-30T02:25:09.324Z,53.23
2023-12-30T02:27:01.188Z,53.21
2023-12-30T02:28:52.909Z,53.01
2023-12-30T02:30:44.384Z,52.94
2023-12-30T02:32:36.254Z,52.91
2023-12-30T02:34:28.805Z,52.85
2023-12-30T02:36:21.382Z,52.74
2023-12-30T02:38:12.472Z,52.67
2023-12-30T02:40:04.132Z,52.75
2023-12-30T02:41:55.470Z,52.99
2023-12-30T02:44:02.144Z,53.01
2023-12-30T02:45:53.487Z,53.01
2023-12-30T02:47:45.324Z,53.02
2023-12-30T02:49:36.904Z,52.97
2023-12-30T02:51:28.537Z,52.87
2023-12-30T02:53:20.132Z,52.87
2023-12-30T02:55:11.745Z,52.73
2023-12-30T02:57:04.121Z,52.49
2023-12-30T02:59:02.727Z,52.54
2023-12-30T03:00:54.148Z,52.47
2023-12-30T03:02:45.934Z,52.42
2023-12-30T03:04:37.353Z,52.29
2023-12-30T03:06:29.041Z,52.16
2023-12-30T03:08:20.337Z,52.14
2023-12-30T03:10:12.128Z,52.35
2023-12-30T03:12:03.778Z,52.34
2023-12-30T03:13:55.111Z,52.47
2023-12-30T03:15:46.351Z,52.47
2023-12-30T03:17:38.114Z,52.49
2023-12-30T03:19:29.410Z,52.60
2023-12-30T03:21:21.116Z,52.54
2023-12-30T03:23:12.918Z,52.56
2023-12-30T03:25:05.106Z,52.55
2023-12-30T03:26:56.857Z,52.60
2023-12-30T03:28:48.776Z,52.66
2023-12-30T03:30:40.517Z,52.57
2023-12-30T03:32:32.329Z,52.56
2023-12-30T03:34:24.811Z,52.62
2023-12-30T03:36:16.484Z,52.47
2023-12-30T03:38:07.808Z,52.53
2023-12-30T03:39:59.744Z,52.27
2023-12-30T03:41:51.022Z,52.20
2023-12-30T03:43:42.809Z,51.88
2023-12-30T03:45:34.426Z,51.79
2023-12-30T03:47:25.687Z,51.69
2023-12-30T03:49:17.246Z,51.49
2023-12-30T03:51:08.638Z,51.32
2023-12-30T03:53:00.109Z,51.22
2023-12-30T03:54:53.482Z,51.21
2023-12-30T03:56:44.898Z,50.88
2023-12-30T03:58:36.696Z,50.73
2023-12-30T04:00:27.987Z,50.48
2023-12-30T04:02:22.219Z,50.28
2023-12-30T04:04:14.309Z,50.04
2023-12-30T04:06:06.069Z,50.20
2023-12-30T04:07:57.853Z,50.14
2023-12-30T04:09:49.490Z,50.09
2023-12-30T04:11:41.058Z,50.02
2023-12-30T04:13:32.575Z,50.23
2023-12-30T04:15:24.368Z,50.00
2023-12-30T04:17:15.630Z,50.36
2023-12-30T04:19:07.255Z,50.42
2023-12-30T04:20:58.530Z,50.52
2023-12-30T04:22:49.897Z,50.80
2023-12-30T04:24:41.231Z,50.77
2023-12-30T04:26:32.420Z,50.88
2023-12-30T04:28:23.697Z,50.82
2023-12-30T04:30:15.048Z,50.63
2023-12-30T04:32:07.305Z,50.70
2023-12-30T04:33:59.411Z,50.62
2023-12-30T04:35:51.105Z,50.81
2023-12-30T04:37:42.345Z,51.25
2023-12-30T04:39:34.022Z,51.36
2023-12-30T04:41:25.306Z,51.60
2023-12-30T04:43:16.965Z,51.95
2023-12-30T04:45:13.643Z,53.00
2023-12-30T04:47:05.535Z,54.44
2023-12-30T04:48:57.007Z,55.70
2023-12-30T04:50:48.825Z,57.11
2023-12-30T04:52:41.292Z,58.06
2023-12-30T04:54:33.306Z,58.78
2023-12-30T04:56:24.451Z,59.28
2023-12-30T04:58:17.420Z,59.38
2023-12-30T05:00:09.069Z,59.60
2023-12-30T05:02:00.551Z,60.17
2023-12-30T05:03:52.275Z,60.77
2023-12-30T05:05:44.300Z,61.31
2023-12-30T05:07:36.003Z,62.41
2023-12-30T05:09:27.562Z,62.79
2023-12-30T05:11:18.961Z,63.38
2023-12-30T05:13:10.462Z,63.40
2023-12-30T05:15:02.305Z,63.68
2023-12-30T05:16:53.916Z,63.79
2023-12-30T05:18:45.302Z,63.67
2023-12-30T05:20:37.511Z,63.97
2023-12-30T05:22:29.289Z,64.14
2023-12-30T05:24:21.028Z,64.03
2023-12-30T05:26:15.342Z,64.10
2023-12-30T05:28:07.270Z,63.89
2023-12-30T05:29:58.795Z,63.88
2023-12-30T05:31:50.475Z,63.83
2023-12-30T05:33:41.985Z,63.77
2023-12-30T05:35:34.396Z,63.85
2023-12-30T05:37:26.136Z,63.91
2023-12-30T05:39:17.784Z,63.91
2023-12-30T05:41:09.724Z,63.94
2023-12-30T05:43:01.773Z,63.93
2023-12-30T05:44:53.159Z,64.18
2023-12-30T05:46:44.783Z,64.32
2023-12-30T05:48:36.415Z,64.55
2023-12-30T05:50:28.908Z,64.49
2023-12-30T05:52:20.555Z,64.53
2023-12-30T05:54:12.348Z,64.32
2023-12-30T05:56:04.296Z,64.61
2023-12-30T05:57:55.767Z,64.65
2023-12-30T05:59:47.401Z,64.44
2023-12-30T06:01:48.075Z,64.21
2023-12-30T06:03:39.584Z,64.40
2023-12-30T06:05:31.306Z,64.53
2023-12-30T06:07:23.003Z,64.50
2023-12-30T06:09:14.910Z,65.05
2023-12-30T06:11:06.650Z,64.62
2023-12-30T06:12:58.153Z,64.79
2023-12-30T06:14:49.928Z,64.70
2023-12-30T06:16:41.395Z,64.77
2023-12-30T06:18:33.439Z,65.02
2023-12-30T06:20:25.226Z,65.06
2023-12-30T06:22:17.030Z,65.18
2023-12-30T06:24:08.850Z,65.18
2023-12-30T06:26:03.526Z,65.00
2023-12-30T06:27:55.172Z,64.31
2023-12-30T06:29:48.397Z,63.99
2023-12-30T06:31:41.854Z,63.72
2023-12-30T06:33:33.232Z,63.62
2023-12-30T06:35:24.991Z,63.55
2023-12-30T06:37:16.101Z,63.41
2023-12-30T06:39:07.709Z,62.86
2023-12-30T06:40:59.029Z,63.01
2023-12-30T06:42:50.267Z,62.52
2023-12-30T06:44:41.778Z,62.72
2023-12-30T06:46:34.863Z,62.70
2023-12-30T06:48:26.196Z,62.34
2023-12-30T06:50:20.526Z,61.04
2023-12-30T06:52:13.386Z,60.11
2023-12-30T06:54:06.720Z,59.87
2023-12-30T06:56:04.917Z,60.00
2023-12-30T06:57:56.677Z,60.02
2023-12-30T06:59:48.127Z,59.96
2023-12-30T07:01:41.417Z,60.81
2023-12-30T07:03:33.598Z,60.13
2023-12-30T07:05:25.148Z,60.60
2023-12-30T07:07:16.836Z,61.13
2023-12-30T07:09:08.509Z,61.25
2023-12-30T07:11:00.337Z,61.71
2023-12-30T07:12:51.779Z,61.95
2023-12-30T07:14:43.587Z,62.08
2023-12-30T07:16:35.211Z,62.20
2023-12-30T07:18:26.522Z,62.55
2023-12-30T07:20:18.178Z,62.79
2023-12-30T07:22:09.847Z,62.94
2023-12-30T07:24:01.213Z,63.05
2023-12-30T07:25:52.443Z,63.14
2023-12-30T07:27:43.996Z,63.30
2023-12-30T07:29:35.789Z,63.28
2023-12-30T07:31:27.421Z,63.56
2023-12-30T07:33:19.248Z,63.30
2023-12-30T07:35:11.046Z,63.43
2023-12-30T07:37:03.052Z,63.33
2023-12-30T07:38:54.666Z,63.51
2023-12-30T07:40:46.234Z,63.48
2023-12-30T07:42:37.886Z,63.50
2023-12-30T07:44:30.244Z,63.63
2023-12-30T07:46:22.489Z,63.30
2023-12-30T07:48:13.593Z,63.35
2023-12-30T07:50:06.323Z,63.32
2023-12-30T07:52:01.103Z,63.37
2023-12-30T07:53:53.506Z,63.02
2023-12-30T07:55:45.391Z,63.00
2023-12-30T07:57:37.166Z,63.21
2023-12-30T07:59:28.686Z,63.23
2023-12-30T08:01:20.578Z,63.05
2023-12-30T08:03:12.459Z,63.24
2023-12-30T08:05:04.320Z,63.10
2023-12-30T08:06:56.834Z,62.91
2023-12-30T08:08:48.606Z,63.14
2023-12-30T08:10:39.964Z,63.36
2023-12-30T08:12:31.731Z,63.81
2023-12-30T08:14:22.764Z,64.45
2023-12-30T08:16:14.164Z,64.43
2023-12-30T08:18:06.042Z,63.75
2023-12-30T08:19:58.214Z,63.23
2023-12-30T08:21:49.798Z,62.91
2023-12-30T08:23:41.109Z,62.91
2023-12-30T08:25:32.847Z,62.76
2023-12-30T08:27:24.576Z,62.80
2023-12-30T08:29:16.558Z,62.88
2023-12-30T08:31:07.922Z,62.89
2023-12-30T08:33:05.613Z,62.70
2023-12-30T08:34:58.638Z,62.25
2023-12-30T08:36:49.996Z,62.07
2023-12-30T08:38:41.676Z,61.34
2023-12-30T08:40:36.723Z,61.83
2023-12-30T08:42:35.419Z,60.57
2023-12-30T08:44:28.054Z,60.87
2023-12-30T08:46:19.930Z,60.49
2023-12-30T08:48:11.968Z,59.52
2023-12-30T08:50:05.242Z,60.20
2023-12-30T08:51:56.563Z,59.62
2023-12-30T08:53:48.311Z,59.27
2023-12-30T08:55:40.101Z,59.89
2023-12-30T08:57:32.016Z,58.85
2023-12-30T08:59:25.268Z,59.21
2023-12-30T09:01:16.966Z,59.47
2023-12-30T09:03:08.583Z,59.85
2023-12-30T09:05:00.414Z,60.03
2023-12-30T09:06:54.294Z,60.37
2023-12-30T09:08:45.615Z,60.35
2023-12-30T09:10:37.067Z,60.36
2023-12-30T09:12:28.317Z,60.52
2023-12-30T09:14:20.876Z,60.71
2023-12-30T09:16:12.880Z,60.65
2023-12-30T09:18:06.127Z,60.70
2023-12-30T09:19:57.801Z,60.84
2023-12-30T09:21:49.144Z,60.90
2023-12-30T09:23:40.459Z,60.79
2023-12-30T09:25:32.585Z,60.73
2023-12-30T09:27:24.025Z,60.74
2023-12-30T09:29:15.271Z,60.49
2023-12-30T09:31:06.745Z,60.64
2023-12-30T09:32:58.459Z,60.68
2023-12-30T09:34:50.147Z,60.46
2023-12-30T09:36:41.700Z,60.55
2023-12-30T09:38:33.427Z,60.77
2023-12-30T09:40:25.176Z,60.07
2023-12-30T09:42:17.266Z,60.12
2023-12-30T09:44:10.969Z,60.81
2023-12-30T09:46:05.655Z,60.23
2023-12-30T09:47:58.817Z,60.06
2023-12-30T09:49:51.230Z,60.52
2023-12-30T09:51:42.861Z,60.54
2023-12-30T09:53:34.585Z,60.57
2023-12-30T09:55:26.250Z,59.94
2023-12-30T09:57:17.885Z,60.16
2023-12-30T09:59:09.857Z,59.94
2023-12-30T10:01:01.595Z,60.01
2023-12-30T10:02:53.852Z,59.73
2023-12-30T10:04:46.089Z,58.81
2023-12-30T10:06:38.574Z,58.51
2023-12-30T10:08:30.273Z,57.09
2023-12-30T10:10:47.603Z,56.08
2023-12-30T10:12:39.927Z,54.99
2023-12-30T10:14:31.200Z,54.03
2023-12-30T10:16:23.002Z,53.50
2023-12-30T10:18:16.588Z,53.21
2023-12-30T10:20:11.464Z,51.47
2023-12-30T10:22:03.797Z,52.07
2023-12-30T10:23:55.966Z,51.27
2023-12-30T10:25:47.324Z,50.32
2023-12-30T10:27:39.466Z,50.22
2023-12-30T10:29:39.838Z,50.51
2023-12-30T10:31:38.237Z,50.36
2023-12-30T10:33:30.680Z,50.76
2023-12-30T10:35:24.108Z,49.49
2023-12-30T10:37:15.917Z,50.21
2023-12-30T10:39:07.832Z,50.87
2023-12-30T10:40:59.387Z,50.91
2023-12-30T10:42:50.961Z,50.94
2023-12-30T10:44:43.501Z,50.91
2023-12-30T10:46:35.408Z,50.83
2023-12-30T10:48:34.723Z,50.83
2023-12-30T10:50:27.546Z,51.35
2023-12-30T10:52:24.618Z,50.99
2023-12-30T10:54:22.506Z,51.88
2023-12-30T10:56:17.571Z,51.86
2023-12-30T10:58:21.602Z,52.62
2023-12-30T11:00:16.021Z,52.70
2023-12-30T11:02:07.491Z,52.80
2023-12-30T11:03:59.537Z,53.29
2023-12-30T11:06:00.599Z,53.30
2023-12-30T11:07:52.222Z,53.95
2023-12-30T11:09:44.147Z,53.96
2023-12-30T11:11:40.696Z,54.12
2023-12-30T11:13:39.754Z,54.55
2023-12-30T11:15:33.207Z,54.71
2023-12-30T11:17:36.946Z,54.73
2023-12-30T11:19:30.887Z,55.01
2023-12-30T11:21:45.446Z,55.10
2023-12-30T11:23:37.827Z,55.16
2023-12-30T11:25:43.122Z,55.53
2023-12-30T11:27:34.697Z,55.70
2023-12-30T11:29:27.945Z,55.60
2023-12-30T11:31:19.588Z,55.94
2023-12-30T11:33:15.343Z,56.08
2023-12-30T11:35:07.257Z,56.46
2023-12-30T11:36:59.957Z,56.44
2023-12-30T11:38:53.890Z,56.45
2023-12-30T11:40:53.539Z,56.60
2023-12-30T11:42:48.440Z,56.65
2023-12-30T11:44:40.569Z,56.87
2023-12-30T11:46:32.670Z,56.83
2023-12-30T11:48:24.554Z,56.55
2023-12-30T11:50:16.221Z,56.63
2023-12-30T11:52:09.187Z,56.48
2023-12-30T11:54:16.058Z,56.29
2023-12-30T11:56:09.139Z,55.79
2023-12-30T11:58:01.524Z,54.75
2023-12-30T11:59:52.929Z,54.86
2023-12-30T12:01:48.145Z,54.47
2023-12-30T12:03:41.112Z,53.42
2023-12-30T12:05:34.637Z,52.96
2023-12-30T12:07:26.348Z,53.08
2023-12-30T12:09:18.152Z,52.85
2023-12-30T12:11:10.027Z,52.90
2023-12-30T12:13:04.517Z,52.63
2023-12-30T12:14:56.570Z,52.24
2023-12-30T12:16:47.830Z,52.50
2023-12-30T12:18:41.718Z,51.74
2023-12-30T12:20:39.982Z,51.53
2023-12-30T12:22:31.956Z,51.36
2023-12-30T12:24:23.297Z,51.67
2023-12-30T12:26:15.038Z,51.83
2023-12-30T12:28:10.890Z,51.20
2023-12-30T12:30:02.534Z,51.72
2023-12-30T12:31:53.942Z,51.90
2023-12-30T12:33:45.638Z,51.78
2023-12-30T12:35:37.193Z,52.00
2023-12-30T12:37:28.818Z,51.79
2023-12-30T12:39:20.405Z,51.98
2023-12-30T12:41:11.836Z,52.08
2023-12-30T12:43:03.579Z,52.24
2023-12-30T12:44:55.412Z,52.11
2023-12-30T12:46:46.989Z,51.98
2023-12-30T12:48:39.441Z,52.08
2023-12-30T12:50:32.448Z,52.25
2023-12-30T12:52:24.138Z,52.34
2023-12-30T12:54:15.648Z,52.32
2023-12-30T12:56:07.503Z,52.56
2023-12-30T12:57:59.610Z,52.79
2023-12-30T12:59:51.471Z,52.85
2023-12-30T13:01:44.040Z,52.89
2023-12-30T13:03:35.779Z,52.68
2023-12-30T13:05:27.286Z,52.97
2023-12-30T13:07:18.977Z,52.84
2023-12-30T13:09:42.538Z,52.90
2023-12-30T13:11:34.464Z,52.97
2023-12-30T13:13:25.843Z,53.33
2023-12-30T13:15:20.973Z,53.36
2023-12-30T13:17:14.756Z,53.28
2023-12-30T13:19:06.542Z,53.41
2023-12-30T13:20:58.998Z,53.34
2023-12-30T13:22:56.558Z,53.47
2023-12-30T13:24:49.040Z,53.50
2023-12-30T13:26:40.725Z,53.36
2023-12-30T13:28:32.948Z,53.36
2023-12-30T13:30:24.841Z,53.36
2023-12-30T13:32:16.624Z,52.81
2023-12-30T13:34:08.625Z,53.26
2023-12-30T13:36:00.630Z,53.26
2023-12-30T13:37:56.489Z,53.29
2023-12-30T13:39:47.809Z,53.18
2023-12-30T13:41:40.461Z,53.03
2023-12-30T13:43:32.701Z,53.27
2023-12-30T13:45:24.376Z,53.15
2023-12-30T13:47:36.112Z,53.12
2023-12-30T13:49:53.015Z,53.03
2023-12-30T13:51:49.802Z,52.94
2023-12-30T13:53:41.240Z,52.83
2023-12-30T13:55:34.342Z,52.95
2023-12-30T13:57:28.641Z,52.96
2023-12-30T13:59:20.305Z,52.78
2023-12-30T14:01:11.918Z,52.48
2023-12-30T14:03:05.409Z,52.65
2023-12-30T14:04:58.274Z,52.56
2023-12-30T14:06:49.940Z,52.74
2023-12-30T14:08:44.262Z,52.83
2023-12-30T14:10:35.983Z,53.16
2023-12-30T14:12:28.640Z,53.24
2023-12-30T14:14:22.049Z,53.16
2023-12-30T14:16:14.906Z,53.39
2023-12-30T14:18:06.610Z,53.86
2023-12-30T14:20:00.102Z,54.15
2023-12-30T14:21:52.249Z,55.27
2023-12-30T14:23:44.429Z,56.64
2023-12-30T14:25:36.434Z,57.19
2023-12-30T14:27:28.391Z,58.64
2023-12-30T14:29:19.908Z,59.32
2023-12-30T14:31:14.126Z,59.68
2023-12-30T14:33:06.669Z,59.70
2023-12-30T14:34:59.659Z,60.01
2023-12-30T14:36:51.469Z,59.75
2023-12-30T14:38:42.842Z,59.69
2023-12-30T14:40:35.418Z,59.61
2023-12-30T14:42:27.561Z,59.91
2023-12-30T14:44:19.365Z,59.88
2023-12-30T14:46:12.866Z,60.02
2023-12-30T14:48:05.316Z,59.81
2023-12-30T14:49:56.661Z,59.78
2023-12-30T14:51:48.690Z,59.41
2023-12-30T14:53:40.736Z,59.79
2023-12-30T14:55:33.250Z,59.72
2023-12-30T14:57:24.724Z,59.94
2023-12-30T14:59:16.527Z,60.32
2023-12-30T15:01:08.588Z,60.01
2023-12-30T15:03:01.331Z,59.82
2023-12-30T15:04:53.074Z,59.92
2023-12-30T15:06:44.737Z,60.00
2023-12-30T15:08:36.286Z,60.10
2023-12-30T15:10:27.441Z,60.04
2023-12-30T15:12:22.821Z,60.12
2023-12-30T15:14:14.291Z,60.13
2023-12-30T15:16:06.180Z,59.70
2023-12-30T15:17:57.880Z,59.70
2023-12-30T15:19:50.002Z,59.75
2023-12-30T15:21:41.705Z,59.70
2023-12-30T15:23:33.806Z,59.71
2023-12-30T15:25:25.838Z,59.77
2023-12-30T15:27:17.177Z,59.86
2023-12-30T15:29:08.992Z,59.88
2023-12-30T15:31:02.406Z,59.86
2023-12-30T15:32:56.174Z,60.16
2023-12-30T15:34:48.357Z,60.04
2023-12-30T15:36:40.189Z,59.98
2023-12-30T15:38:34.606Z,60.12
2023-12-30T15:40:25.780Z,60.07
2023-12-30T15:42:17.795Z,60.17
2023-12-30T15:44:08.927Z,60.27
2023-12-30T15:46:00.677Z,60.41
2023-12-30T15:47:52.857Z,60.57
2023-12-30T15:49:44.717Z,60.70
2023-12-30T15:51:36.076Z,60.84
2023-12-30T15:53:27.389Z,61.00
2023-12-30T15:55:18.976Z,60.99
2023-12-30T15:57:10.533Z,61.18
2023-12-30T15:59:02.211Z,61.16
2023-12-30T16:00:53.785Z,61.29
2023-12-30T16:02:47.226Z,61.45
2023-12-30T16:04:39.390Z,61.50
2023-12-30T16:06:31.034Z,61.56
2023-12-30T16:08:22.585Z,61.81
2023-12-30T16:10:15.848Z,61.88
2023-12-30T16:12:08.333Z,61.89
2023-12-30T16:13:59.930Z,61.84
2023-12-30T16:15:53.912Z,61.96
2023-12-30T16:17:45.668Z,62.03
2023-12-30T16:19:38.586Z,61.97
2023-12-30T16:21:30.938Z,62.05
2023-12-30T16:23:22.359Z,61.80
2023-12-30T16:25:13.771Z,61.83
2023-12-30T16:27:05.359Z,61.65
2023-12-30T16:28:58.547Z,61.53
2023-12-30T16:30:50.132Z,61.58
2023-12-30T16:32:41.984Z,61.58
2023-12-30T16:34:34.079Z,61.41
2023-12-30T16:36:28.585Z,61.41
2023-12-30T16:38:20.280Z,61.13
2023-12-30T16:40:11.814Z,61.15
2023-12-30T16:42:03.466Z,61.10
2023-12-30T16:43:55.018Z,61.28
2023-12-30T16:45:47.126Z,60.99
2023-12-30T16:47:40.140Z,61.12
2023-12-30T16:49:32.118Z,61.16
2023-12-30T16:51:23.569Z,61.34
2023-12-30T16:53:14.789Z,61.18
2023-12-30T16:55:11.828Z,61.12
2023-12-30T16:57:03.975Z,61.22
2023-12-30T16:58:55.576Z,61.11
2023-12-30T17:00:48.516Z,61.21
2023-12-30T17:02:40.029Z,61.05
2023-12-30T17:04:32.088Z,61.26
2023-12-30T17:06:23.609Z,61.32
2023-12-30T17:08:15.274Z,61.43
2023-12-30T17:10:07.705Z,61.42
2023-12-30T17:11:59.946Z,61.45
2023-12-30T17:13:54.113Z,61.64
2023-12-30T17:15:45.770Z,61.72
2023-12-30T17:17:37.461Z,61.82
2023-12-30T17:19:29.367Z,61.74
2023-12-30T17:21:21.135Z,62.05
2023-12-30T17:23:12.656Z,62.13
2023-12-30T17:25:04.832Z,62.24
2023-12-30T17:26:56.417Z,62.08
2023-12-30T17:28:48.005Z,62.04
2023-12-30T17:30:39.506Z,61.99
2023-12-30T17:32:31.646Z,61.95
2023-12-30T17:34:23.378Z,61.97
2023-12-30T17:36:17.371Z,62.05
2023-12-30T17:38:09.404Z,61.94
2023-12-30T17:40:00.831Z,61.85
2023-12-30T17:41:52.874Z,61.75
2023-12-30T17:43:44.344Z,61.84
2023-12-30T17:45:36.048Z,62.07
2023-12-30T17:47:27.954Z,61.97
2023-12-30T17:49:19.690Z,61.82
2023-12-30T17:51:11.242Z,61.80
2023-12-30T17:53:03.310Z,61.70
2023-12-30T17:54:57.559Z,61.74
2023-12-30T17:56:49.868Z,61.79
2023-12-30T17:58:42.105Z,62.03
2023-12-30T18:00:33.891Z,61.89
2023-12-30T18:02:25.446Z,61.90
2023-12-30T18:04:17.210Z,61.91
2023-12-30T18:06:09.098Z,61.97
2023-12-30T18:08:00.741Z,61.97
2023-12-30T18:09:52.775Z,62.05
2023-12-30T18:11:44.902Z,62.03
2023-12-30T18:13:36.294Z,61.85
2023-12-30T18:15:28.745Z,61.78
2023-12-30T18:17:20.502Z,61.80
2023-12-30T18:19:12.327Z,61.87
2023-12-30T18:21:04.843Z,61.71
2023-12-30T18:22:56.178Z,61.70
2023-12-30T18:24:47.841Z,61.82
2023-12-30T18:26:39.735Z,61.63
2023-12-30T18:28:31.263Z,61.65
2023-12-30T18:30:23.058Z,61.80
2023-12-30T18:32:14.768Z,61.79
2023-12-30T18:34:06.219Z,61.75
2023-12-30T18:35:57.745Z,61.99
2023-12-30T18:37:50.833Z,61.78
2023-12-30T18:39:42.364Z,61.77
2023-12-30T18:41:34.972Z,61.74
2023-12-30T18:43:26.432Z,61.79
2023-12-30T18:45:18.386Z,62.06
2023-12-30T18:47:09.763Z,61.84
2023-12-30T18:49:01.739Z,61.84
2023-12-30T18:50:53.124Z,61.84
2023-12-30T18:52:51.173Z,62.00
2023-12-30T18:54:42.438Z,62.29
2023-12-30T18:56:34.093Z,62.52
2023-12-30T18:58:26.030Z,62.71
2023-12-30T19:00:21.641Z,62.87
2023-12-30T19:02:13.308Z,62.82
2023-12-30T19:04:05.200Z,62.76
2023-12-30T19:05:57.128Z,62.85
2023-12-30T19:07:48.462Z,62.75
2023-12-30T19:09:40.154Z,62.77
2023-12-30T19:11:32.099Z,62.86
2023-12-30T19:13:23.951Z,62.55
2023-12-30T19:15:15.613Z,62.77
2023-12-30T19:17:07.689Z,62.80
2023-12-30T19:18:59.890Z,62.91
2023-12-30T19:20:51.807Z,62.83
2023-12-30T19:22:44.277Z,62.74
2023-12-30T19:24:38.237Z,62.66
2023-12-30T19:26:29.886Z,62.40
2023-12-30T19:28:21.562Z,62.53
2023-12-30T19:30:14.163Z,62.43
2023-12-30T19:32:06.109Z,62.55
2023-12-30T19:33:57.909Z,62.35
2023-12-30T19:35:49.737Z,62.38
2023-12-30T19:37:43.683Z,62.12
2023-12-30T19:39:38.135Z,62.06
2023-12-30T19:41:29.883Z,61.71
2023-12-30T19:43:22.618Z,61.63
2023-12-30T19:45:14.622Z,61.46
2023-12-30T19:47:06.246Z,61.37
2023-12-30T19:48:57.655Z,61.42
2023-12-30T19:50:49.215Z,61.26
2023-12-30T19:52:40.705Z,61.08
2023-12-30T19:54:32.241Z,61.19
2023-12-30T19:56:25.469Z,61.29
2023-12-30T19:58:16.982Z,61.30
2023-12-30T20:00:09.890Z,61.41
2023-12-30T20:02:01.511Z,61.24
2023-12-30T20:03:53.727Z,61.17
2023-12-30T20:05:45.945Z,61.16
2023-12-30T20:07:37.595Z,61.02
2023-12-30T20:09:29.208Z,61.10
2023-12-30T20:11:20.420Z,61.28
2023-12-30T20:13:11.780Z,61.39
2023-12-30T20:15:09.707Z,61.44
2023-12-30T20:17:02.221Z,61.58
2023-12-30T20:18:54.097Z,61.85
2023-12-30T20:20:45.741Z,61.95
2023-12-30T20:22:37.695Z,61.90
2023-12-30T20:24:29.321Z,62.20
2023-12-30T20:26:20.954Z,62.62
2023-12-30T20:28:13.534Z,62.84
2023-12-30T20:30:06.019Z,62.79
2023-12-30T20:31:57.863Z,62.82
2023-12-30T20:33:49.227Z,62.80
2023-12-30T20:35:40.760Z,62.69
2023-12-30T20:37:32.061Z,62.13
2023-12-30T20:39:23.761Z,62.20
2023-12-30T20:41:15.586Z,62.30
2023-12-30T20:43:07.465Z,62.37
2023-12-30T20:44:58.877Z,62.39
2023-12-30T20:46:50.997Z,62.32
2023-12-30T20:48:43.823Z,62.22
2023-12-30T20:50:37.968Z,62.21
2023-12-30T20:52:29.637Z,62.47
2023-12-30T20:54:21.416Z,62.77
2023-12-30T20:56:13.130Z,63.08
2023-12-30T20:58:04.671Z,63.43
2023-12-30T20:59:56.090Z,63.32
2023-12-30T21:01:48.232Z,63.19
2023-12-30T21:03:41.257Z,63.30
2023-12-30T21:05:34.377Z,63.70
2023-12-30T21:07:26.222Z,63.93
2023-12-30T21:09:18.220Z,63.88
2023-12-30T21:11:09.613Z,64.54
2023-12-30T21:13:01.293Z,64.99
2023-12-30T21:14:53.218Z,64.97
2023-12-30T21:16:46.306Z,64.75
2023-12-30T21:18:38.087Z,64.72
2023-12-30T21:20:29.284Z,64.48
2023-12-30T21:22:20.495Z,64.55
2023-12-30T21:24:11.816Z,64.53
2023-12-30T21:26:05.541Z,64.56
2023-12-30T21:27:57.162Z,64.56
2023-12-30T21:29:48.821Z,64.78
2023-12-30T21:31:43.825Z,64.58
2023-12-30T21:33:37.281Z,64.41
2023-12-30T21:35:28.678Z,64.33
2023-12-30T21:37:19.968Z,64.23
2023-12-30T21:39:13.275Z,64.43
2023-12-30T21:41:05.749Z,64.58
2023-12-30T21:42:57.399Z,64.35
2023-12-30T21:44:50.480Z,64.32
2023-12-30T21:46:45.775Z,64.27
2023-12-30T21:48:37.621Z,64.30
2023-12-30T21:50:29.186Z,63.83
2023-12-30T21:52:21.449Z,63.75
2023-12-30T21:54:13.954Z,63.92
2023-12-30T21:56:05.599Z,63.84
2023-12-30T21:57:57.072Z,63.50
2023-12-30T21:59:48.683Z,63.60
2023-12-30T22:01:40.060Z,63.66
2023-12-30T22:03:31.696Z,63.75
2023-12-30T22:05:23.524Z,64.24
2023-12-30T22:07:15.329Z,64.24
2023-12-30T22:09:07.134Z,64.40
2023-12-30T22:10:58.616Z,64.53
2023-12-30T22:12:50.412Z,64.60
2023-12-30T22:14:41.760Z,64.49
2023-12-30T22:16:33.540Z,64.65
2023-12-30T22:18:25.409Z,64.69
2023-12-30T22:20:17.076Z,64.72
2023-12-30T22:22:09.456Z,64.61
2023-12-30T22:24:01.265Z,64.51
2023-12-30T22:25:52.564Z,64.42
2023-12-30T22:27:46.006Z,64.55
2023-12-30T22:29:37.861Z,64.56
2023-12-30T22:31:29.686Z,64.75
2023-12-30T22:33:21.393Z,64.56
2023-12-30T22:35:16.541Z,64.66
2023-12-30T22:37:08.173Z,64.75
2023-12-30T22:38:59.791Z,64.53
2023-12-30T22:40:51.215Z,64.78
2023-12-30T22:42:42.721Z,65.12
2023-12-30T22:44:37.730Z,64.83
2023-12-30T22:46:30.020Z,65.43
2023-12-30T22:48:23.028Z,65.77
2023-12-30T22:50:14.357Z,66.50
2023-12-30T22:52:06.326Z,66.73
2023-12-30T22:53:58.218Z,67.15
2023-12-30T22:55:49.912Z,67.59
2023-12-30T22:57:42.097Z,67.94
2023-12-30T22:59:33.682Z,67.98
2023-12-30T23:01:25.581Z,67.84
2023-12-30T23:03:17.913Z,67.74
2023-12-30T23:05:09.937Z,67.64
2023-12-30T23:07:01.233Z,67.46
2023-12-30T23:08:52.857Z,67.93
2023-12-30T23:10:44.729Z,68.01
2023-12-30T23:12:36.368Z,67.67
2023-12-30T23:14:27.952Z,67.88
2023-12-30T23:16:19.741Z,67.78
2023-12-30T23:18:11.478Z,67.46
2023-12-30T23:20:04.519Z,67.63
2023-12-30T23:21:55.950Z,67.37
2023-12-30T23:23:47.223Z,66.93
2023-12-30T23:25:38.489Z,67.02
2023-12-30T23:27:30.156Z,66.69
2023-12-30T23:29:22.040Z,66.50
2023-12-30T23:31:13.621Z,66.41
2023-12-30T23:33:05.547Z,66.88
2023-12-30T23:34:57.390Z,66.92
2023-12-30T23:36:48.735Z,66.95
2023-12-30T23:38:40.461Z,67.03
2023-12-30T23:40:31.916Z,66.83
2023-12-30T23:42:23.332Z,66.49
2023-12-30T23:44:15.116Z,66.46
2023-12-30T23:46:06.797Z,66.45
2023-12-30T23:47:58.516Z,66.50
2023-12-30T23:49:50.155Z,66.19
2023-12-30T23:51:41.976Z,66.80
2023-12-30T23:53:33.407Z,67.19
2023-12-30T23:55:24.653Z,67.39
2023-12-30T23:57:16.499Z,67.21
2023-12-30T23:59:07.943Z,66.95
